Terminal Aerodrome Forecast
Issued by NWS Grand Forks, ND

Home | Current Version | Previous Version | Text Only | Print | Product List | Glossary On
Versions: 1 2 3 4 5 6 7 8 9 10 11 12 13 14 15 16 17 18 19 20 21 22 23 24 25
000
FTUS43 KFGF 231137
TAFGFK
TAF
KGFK 231137Z 2312/2412 23013KT P6SM -SHRA BKN100
     FM231300 22008KT P6SM BKN080
     FM231500 27010KT P6SM SCT150
     FM241000 19004KT P6SM SCT150=

USA.gov is the U.S. government's official web portal to all federal, state and local government web resources and services.